Noordam — PHET — position and weather

sailwx.info

Track history (hours):
 
Tides and Currents Weather Stations Pressure Air Temp Water Temp Dewpoint Dewpoint Depression Visibility Wind Speed Wind Dir Waves Ship Positions

Noordam (Netherlands)

Ship's website: http://www.hollandamerica.com/cruiseships/Noordam

Last reported at 2014-Oct-25 20:00 UTC. Time now 2014-Oct-25 22:45 UTC.
Position N 37°18' W 021°30'.

Type: Passenger vessel. MMSI: 246028000.

Wind from 350 at 6 knots

Waves 1.0 meters (3 feet), 2 second period

Barometer 1015.0 mb
Air temperature 19.8 ° C
Visibility: greater than 10.8 NM
Dewpoint 18.6 ° C
Water temperature 20.9 ° C

Date/timePositionNaut miles runAvg speedWind from/ knotsBaromVisibWave heightAir tempDewpointWater temp
2014-Oct-25 20:00N 37°18' W 021°30'20714.8 350 / 61015.010.8 1.019.818.620.9
2014-Oct-25 06:00N 36°54' W 017°12'19914.8 180 / 161014.010.8 1.020.019.522.0
2014-Oct-24 16:33N 36°35' W 013°04'3715.1
2014-Oct-24 14:05N 36°30' W 012°18'915.1
2014-Oct-24 13:30N 36°29' W 012°08'1515.4
2014-Oct-24 12:33N 36°27' W 011°49'1615.7
2014-Oct-24 11:33N 36°26' W 011°30'1515.1
2014-Oct-24 10:33N 36°24' W 011°11'1119.8
2014-Oct-24 10:00N 36°18' W 011°00'614.2 020 / 191017.010.8 1.022.018.622.4
2014-Oct-24 09:33N 36°23' W 010°55'1515.3
2014-Oct-24 08:33N 36°21' W 010°37'1515.1
2014-Oct-24 07:33N 36°21' W 010°18'1017.8
2014-Oct-24 07:00N 36°18' W 010°06'511.6 020 / 191015.0 0.5
2014-Oct-24 06:33N 36°18' W 009°60'1815.1
2014-Oct-24 05:22N 36°16' W 009°38'819.8
2014-Oct-24 05:00N 36°12' W 009°30'715.6 020 / 171015.010.8 1.522.016.922.6
2014-Oct-24 04:33N 36°15' W 009°22'3216.1
2014-Oct-24 02:33N 36°12' W 008°43'1716.7
2014-Oct-24 01:33N 36°11' W 008°22'2416.7
2014-Oct-24 00:06N 36°10' W 007°52'1316.2
2014-Oct-23 23:19N 36°05' W 007°38'1316.5
2014-Oct-23 22:33N 36°02' W 007°22'1616.3
2014-Oct-23 21:33N 36°00' W 007°02'1715.9
2014-Oct-23 20:30N 36°02' W 006°42'5215.6
2014-Oct-23 17:11N 35°58' W 005°38'914.3
2014-Oct-23 16:33N 36°01' W 005°27'9 0.9
2014-Oct-23 06:07N 36°09' W 005°22'3 5.0
2014-Oct-23 05:31N 36°06' W 005°22'5 5.2
2014-Oct-23 04:34N 36°07' W 005°16'7 6.6
2014-Oct-23 03:33N 36°10' W 005°09'200 5.8
2014-Oct-21 17:00N 37°12' W 001°12'1515.9 280 / 81022.010.8 23.119.923.3
2014-Oct-21 16:04N 37°26' W 001°08'813.2
2014-Oct-21 15:28N 37°32' W 001°01'2 0.2
2014-Oct-21 05:32N 37°34' W 000°59'7 7.1
2014-Oct-21 04:33N 37°31' W 000°51'1111.4
2014-Oct-21 03:33N 37°33' W 000°37'1111.0
2014-Oct-21 02:33N 37°41' W 000°28'1110.9
2014-Oct-21 01:33N 37°50' W 000°21'1111.1
2014-Oct-21 00:33N 37°60' W 000°14'1111.2
2014-Oct-20 23:33N 38°09' W 000°06'1211.6
2014-Oct-20 22:33N 38°19' E 000°02'1111.1
2014-Oct-20 21:33N 38°28' E 000°10'2110.7
2014-Oct-20 19:33N 38°48' E 000°21'1311.8
2014-Oct-20 18:26N 38°58' E 000°10'4 8.7
2014-Oct-20 18:00N 39°00' E 000°06'914.4 140 / 141020.010.8 20.919.222.4
2014-Oct-20 17:22N 39°08' E 000°01'2 5.7
2014-Oct-20 17:00N 39°06' E 000°00'2514.7 140 / 141019.010.8 20.818.222.5
2014-Oct-20 15:17N 39°26' W 000°19'1 0.1
2014-Oct-20 07:24N 39°27' W 000°19'0 0.2
2014-Oct-20 05:34N 39°27' W 000°19'5 5.5
2014-Oct-20 04:34N 39°29' W 000°12'9211.4
2014-Oct-19 20:30N 40°32' E 001°14'5 5.3
2014-Oct-19 19:33N 40°36' E 001°19'1411.7
2014-Oct-19 18:22N 40°46' E 001°31'1212.2
2014-Oct-19 17:22N 40°55' E 001°43'1211.8
2014-Oct-19 16:22N 41°03' E 001°53'1212.2
2014-Oct-19 15:24N 41°11' E 002°04'910.4
2014-Oct-19 14:33N 41°19' E 002°10'3 0.3
2014-Oct-19 05:00N 41°18' E 002°06'5 0.4 070 / 21014.010.8 19.618.420.6
2014-Oct-18 16:28N 41°21' E 002°11'0 0.0
2014-Oct-18 15:32N 41°21' E 002°11'0 0.0
2014-Oct-18 14:32N 41°21' E 002°11'0 0.0
2014-Oct-18 13:32N 41°21' E 002°11'0 0.0
2014-Oct-18 12:32N 41°21' E 002°11'0 0.0
2014-Oct-18 11:28N 41°21' E 002°11'0 0.0
2014-Oct-18 10:25N 41°21' E 002°11'0 0.0
2014-Oct-18 08:16N 41°21' E 002°11'0 0.0
2014-Oct-18 07:28N 41°21' E 002°11'0 0.0
2014-Oct-18 06:22N 41°21' E 002°11'0 0.0
2014-Oct-18 05:22N 41°21' E 002°11'2 2.2
2014-Oct-18 04:33N 41°20' E 002°10'6 6.0
2014-Oct-18 03:33N 41°16' E 002°16'7 6.8
2014-Oct-18 02:33N 41°17' E 002°25'7 6.9
2014-Oct-18 01:33N 41°18' E 002°34'7 7.0
2014-Oct-18 00:33N 41°20' E 002°43'7 7.3
2014-Oct-17 23:33N 41°21' E 002°53'7 7.1
2014-Oct-17 22:33N 41°22' E 003°02'7 7.0
2014-Oct-17 21:33N 41°24' E 003°11'7 7.0
2014-Oct-17 20:33N 41°25' E 003°20'7 7.0
2014-Oct-17 19:33N 41°26' E 003°30'8 7.7
2014-Oct-17 18:33N 41°28' E 003°39'7 7.4
2014-Oct-17 17:33N 41°29' E 003°49'8 7.6
2014-Oct-17 16:33N 41°31' E 003°59'8 7.5
2014-Oct-17 15:33N 41°32' E 004°09'8 7.8
2014-Oct-17 14:33N 41°34' E 004°19'8 7.7
2014-Oct-17 13:31N 41°35' E 004°30'7 7.5
2014-Oct-17 12:32N 41°37' E 004°39'8 7.8
2014-Oct-17 11:33N 41°38' E 004°49'11 8.3
2014-Oct-17 10:13N 41°40' E 005°04'5 6.4
2014-Oct-17 09:30N 41°43' E 005°09'8 7.4
2014-Oct-17 08:25N 41°51' E 005°09'7 7.9
2014-Oct-17 07:33N 41°58' E 005°09'10 8.0
2014-Oct-17 06:15N 42°08' E 005°09'39 7.8
2014-Oct-17 01:16N 42°47' E 005°09'6 8.2
2014-Oct-17 00:33N 42°53' E 005°09'9 8.7
2014-Oct-16 23:33N 43°02' E 005°09'9 8.6
2014-Oct-16 22:33N 43°10' E 005°09'8 7.5
2014-Oct-16 21:33N 43°18' E 005°11'7 2.8
2014-Oct-16 19:06N 43°21' E 005°20'0 0.0
2014-Oct-16 10:09N 43°21' E 005°20'0 0.1
2014-Oct-16 05:33N 43°21' E 005°20'8 8.1
2014-Oct-16 04:33N 43°16' E 005°11'10 9.7
2014-Oct-16 03:33N 43°07' E 005°15'19 9.6
2014-Oct-16 01:33N 42°57' E 005°37'1010.3
2014-Oct-16 00:33N 42°54' E 005°51'1110.8
2014-Oct-15 23:32N 42°51' E 006°05'1611.8
2014-Oct-15 22:12N 42°50' E 006°27'812.0
2014-Oct-15 21:33N 42°56' E 006°34'1211.9
2014-Oct-15 20:33N 43°03' E 006°47'  
Track history (hours):
 
Tides and Currents Weather Stations Pressure Air Temp Water Temp Dewpoint Dewpoint Depression Visibility Wind Speed Wind Dir Waves Ship Positions

Noordam (Netherlands)

Ship's website: http://www.hollandamerica.com/cruiseships/Noordam

Last reported at 2014-Oct-25 20:00 UTC. Time now 2014-Oct-25 22:45 UTC.
Position N 37°18' W 021°30'.

Type: Passenger vessel. MMSI: 246028000.

Wind from 350 at 6 knots

Waves 1.0 meters (3 feet), 2 second period

Barometer 1015.0 mb
Air temperature 19.8 ° C
Visibility: greater than 10.8 NM
Dewpoint 18.6 ° C
Water temperature 20.9 ° C

Date/timePositionNaut miles runAvg speedWind from/ knotsBaromVisibWave heightAir tempDewpointWater temp
2014-Oct-25 20:00N 37°18' W 021°30'20714.8 350 / 61015.010.8 1.019.818.620.9
2014-Oct-25 06:00N 36°54' W 017°12'19914.8 180 / 161014.010.8 1.020.019.522.0
2014-Oct-24 16:33N 36°35' W 013°04'3715.1
2014-Oct-24 14:05N 36°30' W 012°18'915.1
2014-Oct-24 13:30N 36°29' W 012°08'1515.4
2014-Oct-24 12:33N 36°27' W 011°49'1615.7
2014-Oct-24 11:33N 36°26' W 011°30'1515.1
2014-Oct-24 10:33N 36°24' W 011°11'1119.8
2014-Oct-24 10:00N 36°18' W 011°00'614.2 020 / 191017.010.8 1.022.018.622.4
2014-Oct-24 09:33N 36°23' W 010°55'1515.3
2014-Oct-24 08:33N 36°21' W 010°37'1515.1
2014-Oct-24 07:33N 36°21' W 010°18'1017.8
2014-Oct-24 07:00N 36°18' W 010°06'511.6 020 / 191015.0 0.5
2014-Oct-24 06:33N 36°18' W 009°60'1815.1
2014-Oct-24 05:22N 36°16' W 009°38'819.8
2014-Oct-24 05:00N 36°12' W 009°30'715.6 020 / 171015.010.8 1.522.016.922.6
2014-Oct-24 04:33N 36°15' W 009°22'3216.1
2014-Oct-24 02:33N 36°12' W 008°43'1716.7
2014-Oct-24 01:33N 36°11' W 008°22'2416.7
2014-Oct-24 00:06N 36°10' W 007°52'1316.2
2014-Oct-23 23:19N 36°05' W 007°38'1316.5
2014-Oct-23 22:33N 36°02' W 007°22'1616.3
2014-Oct-23 21:33N 36°00' W 007°02'1715.9
2014-Oct-23 20:30N 36°02' W 006°42'5215.6
2014-Oct-23 17:11N 35°58' W 005°38'914.3
2014-Oct-23 16:33N 36°01' W 005°27'9 0.9
2014-Oct-23 06:07N 36°09' W 005°22'3 5.0
2014-Oct-23 05:31N 36°06' W 005°22'5 5.2
2014-Oct-23 04:34N 36°07' W 005°16'7 6.6
2014-Oct-23 03:33N 36°10' W 005°09'200 5.8
2014-Oct-21 17:00N 37°12' W 001°12'1515.9 280 / 81022.010.8 23.119.923.3
2014-Oct-21 16:04N 37°26' W 001°08'813.2
2014-Oct-21 15:28N 37°32' W 001°01'2 0.2
2014-Oct-21 05:32N 37°34' W 000°59'7 7.1
2014-Oct-21 04:33N 37°31' W 000°51'1111.4
2014-Oct-21 03:33N 37°33' W 000°37'1111.0
2014-Oct-21 02:33N 37°41' W 000°28'1110.9
2014-Oct-21 01:33N 37°50' W 000°21'1111.1
2014-Oct-21 00:33N 37°60' W 000°14'1111.2
2014-Oct-20 23:33N 38°09' W 000°06'1211.6
2014-Oct-20 22:33N 38°19' E 000°02'1111.1
2014-Oct-20 21:33N 38°28' E 000°10'2110.7
2014-Oct-20 19:33N 38°48' E 000°21'1311.8
2014-Oct-20 18:26N 38°58' E 000°10'4 8.7
2014-Oct-20 18:00N 39°00' E 000°06'914.4 140 / 141020.010.8 20.919.222.4
2014-Oct-20 17:22N 39°08' E 000°01'2 5.7
2014-Oct-20 17:00N 39°06' E 000°00'2514.7 140 / 141019.010.8 20.818.222.5
2014-Oct-20 15:17N 39°26' W 000°19'1 0.1
2014-Oct-20 07:24N 39°27' W 000°19'0 0.2
2014-Oct-20 05:34N 39°27' W 000°19'5 5.5
2014-Oct-20 04:34N 39°29' W 000°12'9211.4
2014-Oct-19 20:30N 40°32' E 001°14'5 5.3
2014-Oct-19 19:33N 40°36' E 001°19'1411.7
2014-Oct-19 18:22N 40°46' E 001°31'1212.2
2014-Oct-19 17:22N 40°55' E 001°43'1211.8
2014-Oct-19 16:22N 41°03' E 001°53'1212.2
2014-Oct-19 15:24N 41°11' E 002°04'910.4
2014-Oct-19 14:33N 41°19' E 002°10'3 0.3
2014-Oct-19 05:00N 41°18' E 002°06'5 0.4 070 / 21014.010.8 19.618.420.6
2014-Oct-18 16:28N 41°21' E 002°11'0 0.0
2014-Oct-18 15:32N 41°21' E 002°11'0 0.0
2014-Oct-18 14:32N 41°21' E 002°11'0 0.0
2014-Oct-18 13:32N 41°21' E 002°11'0 0.0
2014-Oct-18 12:32N 41°21' E 002°11'0 0.0
2014-Oct-18 11:28N 41°21' E 002°11'0 0.0
2014-Oct-18 10:25N 41°21' E 002°11'0 0.0
2014-Oct-18 08:16N 41°21' E 002°11'0 0.0
2014-Oct-18 07:28N 41°21' E 002°11'0 0.0
2014-Oct-18 06:22N 41°21' E 002°11'0 0.0
2014-Oct-18 05:22N 41°21' E 002°11'2 2.2
2014-Oct-18 04:33N 41°20' E 002°10'6 6.0
2014-Oct-18 03:33N 41°16' E 002°16'7 6.8
2014-Oct-18 02:33N 41°17' E 002°25'7 6.9
2014-Oct-18 01:33N 41°18' E 002°34'7 7.0
2014-Oct-18 00:33N 41°20' E 002°43'7 7.3
2014-Oct-17 23:33N 41°21' E 002°53'7 7.1
2014-Oct-17 22:33N 41°22' E 003°02'7 7.0
2014-Oct-17 21:33N 41°24' E 003°11'7 7.0
2014-Oct-17 20:33N 41°25' E 003°20'7 7.0
2014-Oct-17 19:33N 41°26' E 003°30'8 7.7
2014-Oct-17 18:33N 41°28' E 003°39'7 7.4
2014-Oct-17 17:33N 41°29' E 003°49'8 7.6
2014-Oct-17 16:33N 41°31' E 003°59'8 7.5
2014-Oct-17 15:33N 41°32' E 004°09'8 7.8
2014-Oct-17 14:33N 41°34' E 004°19'8 7.7
2014-Oct-17 13:31N 41°35' E 004°30'7 7.5
2014-Oct-17 12:32N 41°37' E 004°39'8 7.8
2014-Oct-17 11:33N 41°38' E 004°49'11 8.3
2014-Oct-17 10:13N 41°40' E 005°04'5 6.4
2014-Oct-17 09:30N 41°43' E 005°09'8 7.4
2014-Oct-17 08:25N 41°51' E 005°09'7 7.9
2014-Oct-17 07:33N 41°58' E 005°09'10 8.0
2014-Oct-17 06:15N 42°08' E 005°09'39 7.8
2014-Oct-17 01:16N 42°47' E 005°09'6 8.2
2014-Oct-17 00:33N 42°53' E 005°09'9 8.7
2014-Oct-16 23:33N 43°02' E 005°09'9 8.6
2014-Oct-16 22:33N 43°10' E 005°09'8 7.5
2014-Oct-16 21:33N 43°18' E 005°11'7 2.8
2014-Oct-16 19:06N 43°21' E 005°20'0 0.0
2014-Oct-16 10:09N 43°21' E 005°20'0 0.1
2014-Oct-16 05:33N 43°21' E 005°20'8 8.1
2014-Oct-16 04:33N 43°16' E 005°11'10 9.7
2014-Oct-16 03:33N 43°07' E 005°15'19 9.6
2014-Oct-16 01:33N 42°57' E 005°37'1010.3
2014-Oct-16 00:33N 42°54' E 005°51'1110.8
2014-Oct-15 23:32N 42°51' E 006°05'1611.8
2014-Oct-15 22:12N 42°50' E 006°27'812.0
2014-Oct-15 21:33N 42°56' E 006°34'1211.9
2014-Oct-15 20:33N 43°03' E 006°47'  

Dump ship's entire track history